Weather at Concord Municipal Airport

Public forecast

Using degrees Fahrenheit for public forecast. Weather courtesy of forecast.io.

Current aviation weather report (METAR) for Concord Municipal Airport

Report is more than 6 hours old.

2022/11/14 14:51 (retrieved 2 years ago)

KCON 141451Z AUTO 33015G24KT 10SM FEW046 02/M09 A3022 RMK AO2 PK WND 33027/1358 SLP236 T00171094 51027

Aviation forecast (TAF) for Concord Municipal Airport

Forecast is more than 12 hours old.

2023/02/22 18:39 (retrieved 1 year ago)

TAF KCON 221737Z 2218/2318 31007G14KT P6SM FEW040 FM230100 00000KT 6SM -SHSN OVC035 FM230300 VRB03KT 2SM -SN OVC025 FM230600 08009G17KT 3SM -SNPL OVC010 FM231600 05009G18KT 3SM -SHSN OVC020